sensor_id;sensor_type;location;lat;lon;timestamp;temperature;humidity
10846;DHT22;5476;51.540;7.186;2022-08-21T00:01:13;21.10;99.90
10846;DHT22;5476;51.540;7.186;2022-08-21T00:03:40;21.10;99.90
10846;DHT22;5476;51.540;7.186;2022-08-21T00:06:08;21.10;99.90
10846;DHT22;5476;51.540;7.186;2022-08-21T00:08:36;21.10;99.90
10846;DHT22;5476;51.540;7.186;2022-08-21T00:11:04;21.10;99.90
10846;DHT22;5476;51.540;7.186;2022-08-21T00:13:31;21.10;99.90
10846;DHT22;5476;51.540;7.186;2022-08-21T00:15:59;21.00;99.90
10846;DHT22;5476;51.540;7.186;2022-08-21T00:18:26;21.00;99.90
10846;DHT22;5476;51.540;7.186;2022-08-21T00:20:53;20.90;99.90
10846;DHT22;5476;51.540;7.186;2022-08-21T00:23:20;20.90;99.90
10846;DHT22;5476;51.540;7.186;2022-08-21T00:25:49;20.80;99.90
10846;DHT22;5476;51.540;7.186;2022-08-21T00:28:16;20.80;99.90
10846;DHT22;5476;51.540;7.186;2022-08-21T00:30:45;20.80;99.90
10846;DHT22;5476;51.540;7.186;2022-08-21T00:33:13;20.80;99.90
10846;DHT22;5476;51.540;7.186;2022-08-21T00:35:41;20.80;99.90
10846;DHT22;5476;51.540;7.186;2022-08-21T00:38:09;20.80;99.90
10846;DHT22;5476;51.540;7.186;2022-08-21T00:40:39;20.70;99.90
10846;DHT22;5476;51.540;7.186;2022-08-21T00:43:11;20.70;99.90
10846;DHT22;5476;51.540;7.186;2022-08-21T00:45:39;20.60;99.90
10846;DHT22;5476;51.540;7.186;2022-08-21T00:48:06;20.50;99.90
10846;DHT22;5476;51.540;7.186;2022-08-21T00:50:38;20.50;99.90
10846;DHT22;5476;51.540;7.186;2022-08-21T00:53:06;20.50;99.90
10846;DHT22;5476;51.540;7.186;2022-08-21T00:55:34;20.50;99.90
10846;DHT22;5476;51.540;7.186;2022-08-21T00:58:03;20.50;99.90
10846;DHT22;5476;51.540;7.186;2022-08-21T01:00:35;20.40;99.90
10846;DHT22;5476;51.540;7.186;2022-08-21T01:03:07;20.40;99.90
10846;DHT22;5476;51.540;7.186;2022-08-21T01:05:35;20.40;99.90
10846;DHT22;5476;51.540;7.186;2022-08-21T01:08:03;20.40;99.90
10846;DHT22;5476;51.540;7.186;2022-08-21T01:10:31;20.50;99.90
10846;DHT22;5476;51.540;7.186;2022-08-21T01:12:59;20.50;99.90
10846;DHT22;5476;51.540;7.186;2022-08-21T01:15:28;20.50;99.90
10846;DHT22;5476;51.540;7.186;2022-08-21T01:17:58;20.40;99.90
10846;DHT22;5476;51.540;7.186;2022-08-21T01:20:25;20.40;99.90
10846;DHT22;5476;51.540;7.186;2022-08-21T01:22:54;20.40;99.90
10846;DHT22;5476;51.540;7.186;2022-08-21T01:25:21;20.40;99.90
10846;DHT22;5476;51.540;7.186;2022-08-21T01:27:48;20.40;99.90
10846;DHT22;5476;51.540;7.186;2022-08-21T01:30:18;20.40;99.90
10846;DHT22;5476;51.540;7.186;2022-08-21T01:32:45;20.30;99.90
10846;DHT22;5476;51.540;7.186;2022-08-21T01:35:14;20.30;99.90
10846;DHT22;5476;51.540;7.186;2022-08-21T01:37:42;20.30;99.90
10846;DHT22;5476;51.540;7.186;2022-08-21T01:40:12;20.30;99.90
10846;DHT22;5476;51.540;7.186;2022-08-21T01:42:40;20.20;99.90
10846;DHT22;5476;51.540;7.186;2022-08-21T01:45:07;20.20;99.90
10846;DHT22;5476;51.540;7.186;2022-08-21T01:47:35;20.10;99.90
10846;DHT22;5476;51.540;7.186;2022-08-21T01:50:04;20.00;99.90
10846;DHT22;5476;51.540;7.186;2022-08-21T01:52:31;20.00;99.90
10846;DHT22;5476;51.540;7.186;2022-08-21T01:57:27;20.00;99.90
10846;DHT22;5476;51.540;7.186;2022-08-21T01:59:54;19.90;99.90
10846;DHT22;5476;51.540;7.186;2022-08-21T02:02:21;19.90;99.90
10846;DHT22;5476;51.540;7.186;2022-08-21T02:04:47;19.90;99.90
10846;DHT22;5476;51.540;7.186;2022-08-21T02:07:15;19.90;99.90
10846;DHT22;5476;51.540;7.186;2022-08-21T02:09:43;19.80;99.90
10846;DHT22;5476;51.540;7.186;2022-08-21T02:12:10;19.80;99.90
10846;DHT22;5476;51.540;7.186;2022-08-21T02:14:39;19.80;99.90
10846;DHT22;5476;51.540;7.186;2022-08-21T02:22:00;19.70;99.90
10846;DHT22;5476;51.540;7.186;2022-08-21T02:29:22;19.50;99.90
10846;DHT22;5476;51.540;7.186;2022-08-21T02:31:50;19.50;99.90
10846;DHT22;5476;51.540;7.186;2022-08-21T02:34:17;19.50;99.90
10846;DHT22;5476;51.540;7.186;2022-08-21T02:36:44;19.50;99.90
10846;DHT22;5476;51.540;7.186;2022-08-21T02:41:39;19.40;99.90
10846;DHT22;5476;51.540;7.186;2022-08-21T02:51:29;19.30;99.90
10846;DHT22;5476;51.540;7.186;2022-08-21T02:56:23;19.10;99.90
10846;DHT22;5476;51.540;7.186;2022-08-21T02:58:53;19.10;99.90
10846;DHT22;5476;51.540;7.186;2022-08-21T03:01:20;19.10;99.90
10846;DHT22;5476;51.540;7.186;2022-08-21T03:03:47;19.00;99.90
10846;DHT22;5476;51.540;7.186;2022-08-21T03:06:19;19.00;99.90
10846;DHT22;5476;51.540;7.186;2022-08-21T03:11:14;19.00;99.90
10846;DHT22;5476;51.540;7.186;2022-08-21T03:13:41;19.00;99.90
10846;DHT22;5476;51.540;7.186;2022-08-21T03:16:09;18.90;99.90
10846;DHT22;5476;51.540;7.186;2022-08-21T03:18:37;18.90;99.90
10846;DHT22;5476;51.540;7.186;2022-08-21T03:21:04;18.90;99.90
10846;DHT22;5476;51.540;7.186;2022-08-21T03:23:32;18.90;99.90
10846;DHT22;5476;51.540;7.186;2022-08-21T03:25:59;18.80;99.90
10846;DHT22;5476;51.540;7.186;2022-08-21T03:28:26;18.80;99.90
10846;DHT22;5476;51.540;7.186;2022-08-21T03:30:53;18.80;99.90
10846;DHT22;5476;51.540;7.186;2022-08-21T03:33:21;18.70;99.90
10846;DHT22;5476;51.540;7.186;2022-08-21T03:35:58;18.70;99.90
10846;DHT22;5476;51.540;7.186;2022-08-21T03:38:28;18.60;99.90
10846;DHT22;5476;51.540;7.186;2022-08-21T03:40:57;18.50;99.90
10846;DHT22;5476;51.540;7.186;2022-08-21T03:45:52;18.60;99.90
10846;DHT22;5476;51.540;7.186;2022-08-21T03:48:20;18.60;99.90
10846;DHT22;5476;51.540;7.186;2022-08-21T03:50:47;18.60;99.90
10846;DHT22;5476;51.540;7.186;2022-08-21T03:53:16;18.50;99.90
10846;DHT22;5476;51.540;7.186;2022-08-21T03:55:43;18.50;99.90
10846;DHT22;5476;51.540;7.186;2022-08-21T03:58:12;18.50;99.90
10846;DHT22;5476;51.540;7.186;2022-08-21T04:03:06;18.40;99.90
10846;DHT22;5476;51.540;7.186;2022-08-21T04:08:03;18.40;99.90
10846;DHT22;5476;51.540;7.186;2022-08-21T04:10:33;18.40;99.90
10846;DHT22;5476;51.540;7.186;2022-08-21T04:13:00;18.40;99.90
10846;DHT22;5476;51.540;7.186;2022-08-21T04:15:29;18.40;99.90
10846;DHT22;5476;51.540;7.186;2022-08-21T04:17:56;18.40;99.90
10846;DHT22;5476;51.540;7.186;2022-08-21T04:20:23;18.30;99.90
10846;DHT22;5476;51.540;7.186;2022-08-21T04:22:51;18.30;99.90
10846;DHT22;5476;51.540;7.186;2022-08-21T04:25:20;18.30;99.90
10846;DHT22;5476;51.540;7.186;2022-08-21T04:30:15;18.20;99.90
10846;DHT22;5476;51.540;7.186;2022-08-21T04:32:45;18.10;99.90
10846;DHT22;5476;51.540;7.186;2022-08-21T04:35:13;18.00;99.90
10846;DHT22;5476;51.540;7.186;2022-08-21T04:40:10;18.00;99.90
10846;DHT22;5476;51.540;7.186;2022-08-21T04:42:42;18.10;99.90
10846;DHT22;5476;51.540;7.186;2022-08-21T04:45:18;18.10;99.90
10846;DHT22;5476;51.540;7.186;2022-08-21T04:47:49;18.00;99.90
10846;DHT22;5476;51.540;7.186;2022-08-21T04:50:18;18.00;99.90
10846;DHT22;5476;51.540;7.186;2022-08-21T04:57:41;18.10;99.90
10846;DHT22;5476;51.540;7.186;2022-08-21T05:00:09;18.00;99.90
10846;DHT22;5476;51.540;7.186;2022-08-21T05:02:39;18.10;99.90
10846;DHT22;5476;51.540;7.186;2022-08-21T05:05:08;18.00;99.90
10846;DHT22;5476;51.540;7.186;2022-08-21T05:10:03;18.10;99.90
10846;DHT22;5476;51.540;7.186;2022-08-21T05:12:31;18.10;99.90
10846;DHT22;5476;51.540;7.186;2022-08-21T05:14:58;18.10;99.90
10846;DHT22;5476;51.540;7.186;2022-08-21T05:19:52;18.10;99.90
10846;DHT22;5476;51.540;7.186;2022-08-21T05:22:22;18.10;99.90
10846;DHT22;5476;51.540;7.186;2022-08-21T05:32:13;18.10;99.90
10846;DHT22;5476;51.540;7.186;2022-08-21T05:34:40;18.10;99.90
10846;DHT22;5476;51.540;7.186;2022-08-21T05:37:07;18.00;99.90
10846;DHT22;5476;51.540;7.186;2022-08-21T05:39:38;18.00;99.90
10846;DHT22;5476;51.540;7.186;2022-08-21T05:42:05;18.00;99.90
10846;DHT22;5476;51.540;7.186;2022-08-21T05:44:32;18.00;99.90
10846;DHT22;5476;51.540;7.186;2022-08-21T05:47:03;18.00;99.90
10846;DHT22;5476;51.540;7.186;2022-08-21T05:49:30;18.00;99.90
10846;DHT22;5476;51.540;7.186;2022-08-21T05:51:57;18.00;99.90
10846;DHT22;5476;51.540;7.186;2022-08-21T05:54:24;18.00;99.90
10846;DHT22;5476;51.540;7.186;2022-08-21T05:56:52;18.00;99.90
10846;DHT22;5476;51.540;7.186;2022-08-21T05:59:19;18.00;99.90
10846;DHT22;5476;51.540;7.186;2022-08-21T06:01:46;18.00;99.90
10846;DHT22;5476;51.540;7.186;2022-08-21T06:04:13;18.10;99.90
10846;DHT22;5476;51.540;7.186;2022-08-21T06:06:40;18.10;99.90
10846;DHT22;5476;51.540;7.186;2022-08-21T06:09:07;18.20;99.90
10846;DHT22;5476;51.540;7.186;2022-08-21T06:11:34;18.20;99.90
10846;DHT22;5476;51.540;7.186;2022-08-21T06:14:03;18.30;99.90
10846;DHT22;5476;51.540;7.186;2022-08-21T06:16:32;18.30;99.90
10846;DHT22;5476;51.540;7.186;2022-08-21T06:18:59;18.30;99.90
10846;DHT22;5476;51.540;7.186;2022-08-21T06:21:25;18.30;99.90
10846;DHT22;5476;51.540;7.186;2022-08-21T06:26:21;18.40;99.90
10846;DHT22;5476;51.540;7.186;2022-08-21T06:28:49;18.50;99.90
10846;DHT22;5476;51.540;7.186;2022-08-21T06:31:19;18.40;99.90
10846;DHT22;5476;51.540;7.186;2022-08-21T06:33:46;18.50;99.90
10846;DHT22;5476;51.540;7.186;2022-08-21T06:36:14;18.50;99.90
10846;DHT22;5476;51.540;7.186;2022-08-21T06:38:41;18.50;99.90
10846;DHT22;5476;51.540;7.186;2022-08-21T06:41:08;18.60;99.90
10846;DHT22;5476;51.540;7.186;2022-08-21T06:43:35;18.60;99.90
10846;DHT22;5476;51.540;7.186;2022-08-21T06:48:31;18.80;99.90
10846;DHT22;5476;51.540;7.186;2022-08-21T06:53:27;18.90;99.90
10846;DHT22;5476;51.540;7.186;2022-08-21T06:55:54;19.00;99.90
10846;DHT22;5476;51.540;7.186;2022-08-21T06:58:21;19.10;99.90
10846;DHT22;5476;51.540;7.186;2022-08-21T07:00:49;19.20;99.90
10846;DHT22;5476;51.540;7.186;2022-08-21T07:03:19;19.20;99.90
10846;DHT22;5476;51.540;7.186;2022-08-21T07:05:47;19.30;99.90
10846;DHT22;5476;51.540;7.186;2022-08-21T07:08:14;19.20;99.90
10846;DHT22;5476;51.540;7.186;2022-08-21T07:10:42;19.30;99.90
10846;DHT22;5476;51.540;7.186;2022-08-21T07:23:03;19.60;99.90
10846;DHT22;5476;51.540;7.186;2022-08-21T07:25:31;19.60;99.90
10846;DHT22;5476;51.540;7.186;2022-08-21T07:27:59;19.70;99.90
10846;DHT22;5476;51.540;7.186;2022-08-21T07:30:26;19.80;99.90
10846;DHT22;5476;51.540;7.186;2022-08-21T07:32:53;19.90;99.90
10846;DHT22;5476;51.540;7.186;2022-08-21T07:35:22;20.00;99.90
10846;DHT22;5476;51.540;7.186;2022-08-21T07:37:49;20.10;99.90
10846;DHT22;5476;51.540;7.186;2022-08-21T07:40:17;20.10;99.90
10846;DHT22;5476;51.540;7.186;2022-08-21T07:42:46;20.20;99.90
10846;DHT22;5476;51.540;7.186;2022-08-21T07:45:15;20.20;99.90
10846;DHT22;5476;51.540;7.186;2022-08-21T07:50:10;20.40;99.90
10846;DHT22;5476;51.540;7.186;2022-08-21T07:52:38;20.40;99.90
10846;DHT22;5476;51.540;7.186;2022-08-21T07:55:06;20.50;99.90
10846;DHT22;5476;51.540;7.186;2022-08-21T07:57:34;20.60;99.90
10846;DHT22;5476;51.540;7.186;2022-08-21T08:00:02;20.70;99.90
10846;DHT22;5476;51.540;7.186;2022-08-21T08:02:30;20.80;99.90
10846;DHT22;5476;51.540;7.186;2022-08-21T08:04:59;20.90;99.90
10846;DHT22;5476;51.540;7.186;2022-08-21T08:07:26;20.90;99.90
10846;DHT22;5476;51.540;7.186;2022-08-21T08:09:53;20.90;99.90
10846;DHT22;5476;51.540;7.186;2022-08-21T08:12:20;21.00;99.90
10846;DHT22;5476;51.540;7.186;2022-08-21T08:14:49;21.00;99.90
10846;DHT22;5476;51.540;7.186;2022-08-21T08:17:16;21.10;99.90
10846;DHT22;5476;51.540;7.186;2022-08-21T08:27:09;21.40;99.90
10846;DHT22;5476;51.540;7.186;2022-08-21T08:32:05;21.50;99.90
10846;DHT22;5476;51.540;7.186;2022-08-21T08:34:33;21.60;99.90
10846;DHT22;5476;51.540;7.186;2022-08-21T08:42:05;21.80;99.90
10846;DHT22;5476;51.540;7.186;2022-08-21T08:44:33;21.90;99.90
10846;DHT22;5476;51.540;7.186;2022-08-21T08:47:01;22.00;99.90
10846;DHT22;5476;51.540;7.186;2022-08-21T08:49:36;19.70;99.90
10846;DHT22;5476;51.540;7.186;2022-08-21T08:52:07;22.00;99.90
10846;DHT22;5476;51.540;7.186;2022-08-21T08:54:40;22.00;99.90
10846;DHT22;5476;51.540;7.186;2022-08-21T08:57:15;22.30;99.90
10846;DHT22;5476;51.540;7.186;2022-08-21T08:59:45;22.20;99.90
10846;DHT22;5476;51.540;7.186;2022-08-21T09:02:14;22.30;99.90
10846;DHT22;5476;51.540;7.186;2022-08-21T09:04:44;22.30;99.90
10846;DHT22;5476;51.540;7.186;2022-08-21T09:09:55;22.70;99.90
10846;DHT22;5476;51.540;7.186;2022-08-21T09:12:39;22.80;99.90
10846;DHT22;5476;51.540;7.186;2022-08-21T09:15:15;23.10;99.90
10846;DHT22;5476;51.540;7.186;2022-08-21T09:17:57;23.30;99.90
10846;DHT22;5476;51.540;7.186;2022-08-21T09:20:35;23.50;99.90
10846;DHT22;5476;51.540;7.186;2022-08-21T09:23:13;23.50;99.90
10846;DHT22;5476;51.540;7.186;2022-08-21T09:25:53;23.60;99.90
10846;DHT22;5476;51.540;7.186;2022-08-21T09:30:50;24.00;99.90
10846;DHT22;5476;51.540;7.186;2022-08-21T09:33:21;24.00;99.90
10846;DHT22;5476;51.540;7.186;2022-08-21T09:35:52;24.00;99.90
10846;DHT22;5476;51.540;7.186;2022-08-21T09:38:28;24.10;99.90
10846;DHT22;5476;51.540;7.186;2022-08-21T09:41:00;24.00;99.90
10846;DHT22;5476;51.540;7.186;2022-08-21T09:43:27;24.00;99.90
10846;DHT22;5476;51.540;7.186;2022-08-21T09:46:08;24.20;99.90
10846;DHT22;5476;51.540;7.186;2022-08-21T09:48:44;24.40;99.90
10846;DHT22;5476;51.540;7.186;2022-08-21T09:51:16;24.10;99.90
10846;DHT22;5476;51.540;7.186;2022-08-21T09:53:48;24.90;99.80
10846;DHT22;5476;51.540;7.186;2022-08-21T09:56:19;25.10;98.80
10846;DHT22;5476;51.540;7.186;2022-08-21T09:59:15;25.20;96.30
10846;DHT22;5476;51.540;7.186;2022-08-21T10:01:44;25.20;96.50
10846;DHT22;5476;51.540;7.186;2022-08-21T10:06:41;25.30;95.70
10846;DHT22;5476;51.540;7.186;2022-08-21T10:09:12;25.60;94.40
10846;DHT22;5476;51.540;7.186;2022-08-21T10:11:40;25.90;92.80
10846;DHT22;5476;51.540;7.186;2022-08-21T10:14:18;26.30;91.50
10846;DHT22;5476;51.540;7.186;2022-08-21T10:16:56;26.10;90.90
10846;DHT22;5476;51.540;7.186;2022-08-21T10:19:32;26.10;90.50
10846;DHT22;5476;51.540;7.186;2022-08-21T10:22:13;26.30;91.50
10846;DHT22;5476;51.540;7.186;2022-08-21T10:24:50;26.70;87.60
10846;DHT22;5476;51.540;7.186;2022-08-21T10:27:26;26.50;89.70
10846;DHT22;5476;51.540;7.186;2022-08-21T10:30:02;26.80;89.30
10846;DHT22;5476;51.540;7.186;2022-08-21T10:32:38;27.00;84.30
10846;DHT22;5476;51.540;7.186;2022-08-21T10:35:12;27.10;85.30
10846;DHT22;5476;51.540;7.186;2022-08-21T10:37:52;27.30;81.10
10846;DHT22;5476;51.540;7.186;2022-08-21T10:40:27;27.10;81.60
10846;DHT22;5476;51.540;7.186;2022-08-21T10:43:04;27.00;82.10
10846;DHT22;5476;51.540;7.186;2022-08-21T10:45:45;27.00;82.40
10846;DHT22;5476;51.540;7.186;2022-08-21T10:48:22;27.00;82.10
10846;DHT22;5476;51.540;7.186;2022-08-21T10:50:53;26.90;82.90
10846;DHT22;5476;51.540;7.186;2022-08-21T10:53:40;27.10;83.50
10846;DHT22;5476;51.540;7.186;2022-08-21T10:56:14;27.00;81.80
10846;DHT22;5476;51.540;7.186;2022-08-21T10:58:47;27.00;82.10
10846;DHT22;5476;51.540;7.186;2022-08-21T11:01:20;26.90;83.30
10846;DHT22;5476;51.540;7.186;2022-08-21T11:09:11;26.80;81.80
10846;DHT22;5476;51.540;7.186;2022-08-21T11:11:44;26.80;81.50
10846;DHT22;5476;51.540;7.186;2022-08-21T11:14:21;26.90;81.90
10846;DHT22;5476;51.540;7.186;2022-08-21T11:16:53;27.00;81.70
10846;DHT22;5476;51.540;7.186;2022-08-21T11:19:36;27.10;81.30
10846;DHT22;5476;51.540;7.186;2022-08-21T11:22:11;26.90;80.10
10846;DHT22;5476;51.540;7.186;2022-08-21T11:25:07;26.70;80.80
10846;DHT22;5476;51.540;7.186;2022-08-21T11:27:42;26.60;84.80
10846;DHT22;5476;51.540;7.186;2022-08-21T11:30:11;26.60;82.20
10846;DHT22;5476;51.540;7.186;2022-08-21T11:35:35;26.80;82.40
10846;DHT22;5476;51.540;7.186;2022-08-21T11:38:22;26.80;80.90
10846;DHT22;5476;51.540;7.186;2022-08-21T11:41:07;26.80;81.00
10846;DHT22;5476;51.540;7.186;2022-08-21T11:43:38;26.90;80.90
10846;DHT22;5476;51.540;7.186;2022-08-21T11:46:19;26.90;79.30
10846;DHT22;5476;51.540;7.186;2022-08-21T11:48:59;26.80;79.10
10846;DHT22;5476;51.540;7.186;2022-08-21T11:51:30;26.70;80.30
10846;DHT22;5476;51.540;7.186;2022-08-21T11:54:06;26.60;79.60
10846;DHT22;5476;51.540;7.186;2022-08-21T11:56:43;26.70;80.50
10846;DHT22;5476;51.540;7.186;2022-08-21T11:59:17;26.50;79.00
10846;DHT22;5476;51.540;7.186;2022-08-21T12:01:48;26.50;80.20
10846;DHT22;5476;51.540;7.186;2022-08-21T12:04:22;25.00;79.30
10846;DHT22;5476;51.540;7.186;2022-08-21T12:09:31;26.70;80.30
10846;DHT22;5476;51.540;7.186;2022-08-21T12:12:05;26.70;81.80
10846;DHT22;5476;51.540;7.186;2022-08-21T12:14:37;26.80;80.70
10846;DHT22;5476;51.540;7.186;2022-08-21T12:17:06;26.70;80.80
10846;DHT22;5476;51.540;7.186;2022-08-21T12:22:09;27.00;82.40
10846;DHT22;5476;51.540;7.186;2022-08-21T12:24:38;27.10;81.60
10846;DHT22;5476;51.540;7.186;2022-08-21T12:27:41;27.00;80.90
10846;DHT22;5476;51.540;7.186;2022-08-21T12:30:21;27.10;81.40
10846;DHT22;5476;51.540;7.186;2022-08-21T12:32:56;27.00;79.90
10846;DHT22;5476;51.540;7.186;2022-08-21T12:35:40;27.10;80.20
10846;DHT22;5476;51.540;7.186;2022-08-21T12:38:12;27.10;80.40
10846;DHT22;5476;51.540;7.186;2022-08-21T12:40:43;27.30;79.60
10846;DHT22;5476;51.540;7.186;2022-08-21T12:43:16;27.30;78.80
10846;DHT22;5476;51.540;7.186;2022-08-21T12:45:46;27.30;78.10
10846;DHT22;5476;51.540;7.186;2022-08-21T12:48:18;27.10;77.80
10846;DHT22;5476;51.540;7.186;2022-08-21T12:50:50;27.00;78.00
10846;DHT22;5476;51.540;7.186;2022-08-21T12:53:28;27.00;77.60
10846;DHT22;5476;51.540;7.186;2022-08-21T12:58:33;27.10;75.20
10846;DHT22;5476;51.540;7.186;2022-08-21T13:01:04;27.20;75.80
10846;DHT22;5476;51.540;7.186;2022-08-21T13:03:35;27.30;71.60
10846;DHT22;5476;51.540;7.186;2022-08-21T13:06:03;27.40;69.90
10846;DHT22;5476;51.540;7.186;2022-08-21T13:08:32;27.40;69.30
10846;DHT22;5476;51.540;7.186;2022-08-21T13:11:02;27.50;69.10
10846;DHT22;5476;51.540;7.186;2022-08-21T13:13:33;27.50;69.10
10846;DHT22;5476;51.540;7.186;2022-08-21T13:16:03;27.60;70.30
10846;DHT22;5476;51.540;7.186;2022-08-21T13:18:51;27.60;69.10
10846;DHT22;5476;51.540;7.186;2022-08-21T13:26:14;29.20;69.30
10846;DHT22;5476;51.540;7.186;2022-08-21T13:28:43;27.70;68.90
10846;DHT22;5476;51.540;7.186;2022-08-21T13:31:18;27.80;69.00
10846;DHT22;5476;51.540;7.186;2022-08-21T13:33:48;27.80;68.60
10846;DHT22;5476;51.540;7.186;2022-08-21T13:36:20;27.80;69.40
10846;DHT22;5476;51.540;7.186;2022-08-21T13:41:21;27.90;68.00
10846;DHT22;5476;51.540;7.186;2022-08-21T13:43:56;27.90;68.70
10846;DHT22;5476;51.540;7.186;2022-08-21T13:46:26;27.80;67.80
10846;DHT22;5476;51.540;7.186;2022-08-21T13:53:57;27.40;68.30
10846;DHT22;5476;51.540;7.186;2022-08-21T13:56:26;27.40;68.80
10846;DHT22;5476;51.540;7.186;2022-08-21T13:58:56;27.40;68.70
10846;DHT22;5476;51.540;7.186;2022-08-21T14:01:26;27.40;69.10
10846;DHT22;5476;51.540;7.186;2022-08-21T14:03:57;27.50;70.10
10846;DHT22;5476;51.540;7.186;2022-08-21T14:06:26;27.60;70.20
10846;DHT22;5476;51.540;7.186;2022-08-21T14:08:57;27.60;70.10
10846;DHT22;5476;51.540;7.186;2022-08-21T14:11:25;27.60;70.40
10846;DHT22;5476;51.540;7.186;2022-08-21T14:14:00;27.50;70.40
10846;DHT22;5476;51.540;7.186;2022-08-21T14:16:41;22.80;67.50
10846;DHT22;5476;51.540;7.186;2022-08-21T14:19:11;27.40;70.40
10846;DHT22;5476;51.540;7.186;2022-08-21T14:24:13;27.40;71.80
10846;DHT22;5476;51.540;7.186;2022-08-21T14:26:47;27.50;71.90
10846;DHT22;5476;51.540;7.186;2022-08-21T14:29:18;27.60;71.60
10846;DHT22;5476;51.540;7.186;2022-08-21T14:31:51;27.60;71.10
10846;DHT22;5476;51.540;7.186;2022-08-21T14:44:08;27.50;72.10
10846;DHT22;5476;51.540;7.186;2022-08-21T14:46:37;27.40;72.60
10846;DHT22;5476;51.540;7.186;2022-08-21T14:58:54;27.30;74.50
10846;DHT22;5476;51.540;7.186;2022-08-21T15:01:37;27.30;75.00
10846;DHT22;5476;51.540;7.186;2022-08-21T15:13:59;27.20;76.80
10846;DHT22;5476;51.540;7.186;2022-08-21T15:16:28;27.30;77.00
10846;DHT22;5476;51.540;7.186;2022-08-21T15:18:57;27.40;77.40
10846;DHT22;5476;51.540;7.186;2022-08-21T15:26:20;27.80;75.90
10846;DHT22;5476;51.540;7.186;2022-08-21T15:28:48;28.00;75.70
10846;DHT22;5476;51.540;7.186;2022-08-21T15:41:13;28.50;73.20
10846;DHT22;5476;51.540;7.186;2022-08-21T15:43:44;28.40;73.10
10846;DHT22;5476;51.540;7.186;2022-08-21T15:46:13;28.60;72.70
10846;DHT22;5476;51.540;7.186;2022-08-21T15:51:09;28.50;72.00
10846;DHT22;5476;51.540;7.186;2022-08-21T15:53:38;28.50;71.60
10846;DHT22;5476;51.540;7.186;2022-08-21T15:56:06;28.40;71.90
10846;DHT22;5476;51.540;7.186;2022-08-21T16:01:01;28.50;71.60
10846;DHT22;5476;51.540;7.186;2022-08-21T16:10:53;28.40;71.00
10846;DHT22;5476;51.540;7.186;2022-08-21T16:13:29;28.20;71.40
10846;DHT22;5476;51.540;7.186;2022-08-21T16:25:47;28.20;72.20
10846;DHT22;5476;51.540;7.186;2022-08-21T16:28:17;28.10;71.40
10846;DHT22;5476;51.540;7.186;2022-08-21T16:30:47;28.00;71.70
10846;DHT22;5476;51.540;7.186;2022-08-21T16:33:21;27.90;72.10
10846;DHT22;5476;51.540;7.186;2022-08-21T16:45:40;27.50;71.90
10846;DHT22;5476;51.540;7.186;2022-08-21T16:50:36;27.40;71.70
10846;DHT22;5476;51.540;7.186;2022-08-21T16:53:04;27.40;71.30
10846;DHT22;5476;51.540;7.186;2022-08-21T16:55:33;27.40;71.30
10846;DHT22;5476;51.540;7.186;2022-08-21T16:58:02;27.40;71.20
10846;DHT22;5476;51.540;7.186;2022-08-21T17:00:30;27.40;71.30
10846;DHT22;5476;51.540;7.186;2022-08-21T17:02:58;27.30;71.00
10846;DHT22;5476;51.540;7.186;2022-08-21T17:12:52;28.40;72.20
10846;DHT22;5476;51.540;7.186;2022-08-21T17:15:22;27.20;70.80
10846;DHT22;5476;51.540;7.186;2022-08-21T17:17:50;27.20;70.30
10846;DHT22;5476;51.540;7.186;2022-08-21T17:20:19;27.20;71.00
10846;DHT22;5476;51.540;7.186;2022-08-21T17:27:42;27.00;70.70
10846;DHT22;5476;51.540;7.186;2022-08-21T17:30:10;27.00;70.70
10846;DHT22;5476;51.540;7.186;2022-08-21T17:35:06;26.80;69.90
10846;DHT22;5476;51.540;7.186;2022-08-21T17:37:34;26.70;69.90
10846;DHT22;5476;51.540;7.186;2022-08-21T17:42:30;26.60;69.90
10846;DHT22;5476;51.540;7.186;2022-08-21T17:44:57;26.60;70.00
10846;DHT22;5476;51.540;7.186;2022-08-21T17:47:24;26.60;70.30
10846;DHT22;5476;51.540;7.186;2022-08-21T17:54:47;26.40;69.30
10846;DHT22;5476;51.540;7.186;2022-08-21T17:57:19;26.30;69.60
10846;DHT22;5476;51.540;7.186;2022-08-21T17:59:47;26.30;69.60
10846;DHT22;5476;51.540;7.186;2022-08-21T18:02:15;26.20;69.70
10846;DHT22;5476;51.540;7.186;2022-08-21T18:04:42;26.20;70.50
10846;DHT22;5476;51.540;7.186;2022-08-21T18:09:43;26.20;70.70
10846;DHT22;5476;51.540;7.186;2022-08-21T18:12:10;26.30;70.90
10846;DHT22;5476;51.540;7.186;2022-08-21T18:14:39;26.30;71.00
10846;DHT22;5476;51.540;7.186;2022-08-21T18:17:08;26.30;71.10
10846;DHT22;5476;51.540;7.186;2022-08-21T18:19:36;26.30;70.90
10846;DHT22;5476;51.540;7.186;2022-08-21T18:24:33;26.40;71.20
10846;DHT22;5476;51.540;7.186;2022-08-21T18:27:04;26.40;71.40
10846;DHT22;5476;51.540;7.186;2022-08-21T18:29:33;25.00;70.40
10846;DHT22;5476;51.540;7.186;2022-08-21T18:32:03;26.30;71.40
10846;DHT22;5476;51.540;7.186;2022-08-21T18:34:32;26.30;71.70
10846;DHT22;5476;51.540;7.186;2022-08-21T18:39:29;26.30;72.10
10846;DHT22;5476;51.540;7.186;2022-08-21T18:41:57;26.30;72.00
10846;DHT22;5476;51.540;7.186;2022-08-21T18:44:27;26.30;72.00
10846;DHT22;5476;51.540;7.186;2022-08-21T18:46:59;26.20;71.40
10846;DHT22;5476;51.540;7.186;2022-08-21T18:59:32;23.30;69.60
10846;DHT22;5476;51.540;7.186;2022-08-21T19:12:24;25.50;73.30
10846;DHT22;5476;51.540;7.186;2022-08-21T19:15:03;28.70;76.10
10846;DHT22;5476;51.540;7.186;2022-08-21T19:20:14;25.20;75.60
10846;DHT22;5476;51.540;7.186;2022-08-21T19:22:48;25.10;75.80
10846;DHT22;5476;51.540;7.186;2022-08-21T19:30:20;25.10;76.80
10846;DHT22;5476;51.540;7.186;2022-08-21T19:37:52;25.10;78.20
10846;DHT22;5476;51.540;7.186;2022-08-21T19:45:24;24.90;79.50
10846;DHT22;5476;51.540;7.186;2022-08-21T19:57:51;24.90;81.90
10846;DHT22;5476;51.540;7.186;2022-08-21T20:02:48;24.70;83.00
10846;DHT22;5476;51.540;7.186;2022-08-21T20:10:10;24.50;85.30
10846;DHT22;5476;51.540;7.186;2022-08-21T20:12:37;24.50;85.60
10846;DHT22;5476;51.540;7.186;2022-08-21T20:15:13;24.60;86.00
10846;DHT22;5476;51.540;7.186;2022-08-21T20:20:10;26.30;88.50
10846;DHT22;5476;51.540;7.186;2022-08-21T20:25:12;24.50;88.30
10846;DHT22;5476;51.540;7.186;2022-08-21T20:30:12;24.30;90.30
10846;DHT22;5476;51.540;7.186;2022-08-21T20:35:07;24.00;91.00
10846;DHT22;5476;51.540;7.186;2022-08-21T20:37:35;23.90;91.80
10846;DHT22;5476;51.540;7.186;2022-08-21T20:40:04;23.90;92.50
10846;DHT22;5476;51.540;7.186;2022-08-21T20:47:52;24.00;94.00
10846;DHT22;5476;51.540;7.186;2022-08-21T20:51:04;24.00;94.70
10846;DHT22;5476;51.540;7.186;2022-08-21T20:54:03;24.00;95.40
10846;DHT22;5476;51.540;7.186;2022-08-21T20:56:35;24.00;95.60
10846;DHT22;5476;51.540;7.186;2022-08-21T20:59:13;23.90;96.20
10846;DHT22;5476;51.540;7.186;2022-08-21T21:01:42;23.80;96.70
10846;DHT22;5476;51.540;7.186;2022-08-21T21:04:15;23.90;97.50
10846;DHT22;5476;51.540;7.186;2022-08-21T21:06:51;23.80;98.20
10846;DHT22;5476;51.540;7.186;2022-08-21T21:09:30;23.80;98.90
10846;DHT22;5476;51.540;7.186;2022-08-21T21:11:59;23.80;99.50
10846;DHT22;5476;51.540;7.186;2022-08-21T21:14:36;23.90;99.90